createdAt,value
2023-01-03T00:02:00.891Z,3.13
2023-01-03T00:04:27.941Z,3.15
2023-01-03T00:06:55.271Z,3.30
2023-01-03T00:09:23.771Z,5.88
2023-01-03T00:12:11.822Z,6.55
2023-01-03T00:14:40.757Z,5.22
2023-01-03T00:17:08.044Z,3.15
2023-01-03T00:19:39.206Z,2.50
2023-01-03T00:22:05.966Z,2.80
2023-01-03T00:24:32.924Z,3.45
2023-01-03T00:26:59.885Z,3.78
2023-01-03T00:29:26.700Z,2.95
2023-01-03T00:31:53.443Z,2.10
2023-01-03T00:34:20.097Z,4.95
2023-01-03T00:36:46.856Z,1.90
2023-01-03T00:39:13.568Z,3.38
2023-01-03T00:41:40.693Z,4.50
2023-01-03T00:44:07.480Z,3.40
2023-01-03T00:46:34.380Z,3.13
2023-01-03T00:49:01.846Z,2.70
2023-01-03T00:51:31.495Z,1.58
2023-01-03T00:53:59.429Z,4.20
2023-01-03T00:56:29.248Z,4.30
2023-01-03T00:58:56.400Z,2.60
2023-01-03T01:01:24.672Z,2.17
2023-01-03T01:03:56.262Z,1.98
2023-01-03T01:06:25.758Z,4.20
2023-01-03T01:08:54.315Z,4.47
2023-01-03T01:11:21.557Z,4.43
2023-01-03T01:13:49.047Z,2.22
2023-01-03T01:16:19.681Z,3.50
2023-01-03T01:18:48.147Z,3.55
2023-01-03T01:21:17.596Z,3.33
2023-01-03T01:23:45.121Z,2.40
2023-01-03T01:26:14.418Z,2.88
2023-01-03T01:28:41.732Z,3.13
2023-01-03T01:31:09.799Z,3.47
2023-01-03T01:33:37.420Z,4.43
2023-01-03T01:36:09.168Z,4.57
2023-01-03T01:38:36.048Z,5.18
2023-01-03T01:41:02.760Z,3.47
2023-01-03T01:43:48.069Z,3.05
2023-01-03T01:46:28.446Z,2.88
2023-01-03T01:49:04.225Z,5.80
2023-01-03T01:51:33.543Z,1.77
2023-01-03T01:54:02.768Z,2.95
2023-01-03T01:56:50.488Z,3.88
2023-01-03T01:59:17.208Z,5.22
2023-01-03T02:01:45.905Z,3.60
2023-01-03T02:04:21.262Z,2.28
2023-01-03T02:06:47.985Z,1.40
2023-01-03T02:09:14.711Z,5.13
2023-01-03T02:12:42.181Z,4.22
2023-01-03T02:15:41.167Z,2.40
2023-01-03T02:18:26.061Z,5.95
2023-01-03T02:21:24.063Z,5.50
2023-01-03T02:24:18.213Z,1.40
2023-01-03T02:26:49.683Z,2.00
2023-01-03T02:29:20.999Z,3.72
2023-01-03T02:32:12.958Z,3.20
2023-01-03T02:34:50.692Z,3.30
2023-01-03T02:37:52.780Z,3.30
2023-01-03T02:40:27.362Z,2.50
2023-01-03T02:43:28.381Z,3.03
2023-01-03T02:46:25.913Z,2.63
2023-01-03T02:48:58.843Z,3.95
2023-01-03T02:51:31.320Z,4.07
2023-01-03T02:53:58.802Z,2.70
2023-01-03T02:56:44.865Z,4.20
2023-01-03T02:59:15.097Z,4.13
2023-01-03T03:01:45.634Z,5.35
2023-01-03T03:04:13.027Z,5.53
2023-01-03T03:06:58.400Z,3.35
2023-01-03T03:09:25.273Z,1.98
2023-01-03T03:12:12.004Z,2.22
2023-01-03T03:14:48.042Z,3.28
2023-01-03T03:17:21.008Z,2.47
2023-01-03T03:20:14.619Z,4.20
2023-01-03T03:23:15.352Z,1.88
2023-01-03T03:25:47.160Z,4.63
2023-01-03T03:28:35.121Z,2.17
2023-01-03T03:31:23.105Z,3.78
2023-01-03T03:34:06.249Z,2.05
2023-01-03T03:37:03.356Z,5.00
2023-01-03T03:39:50.186Z,7.15
2023-01-03T03:43:01.741Z,5.57
2023-01-03T03:45:59.862Z,8.52
2023-01-03T03:49:28.157Z,8.07
2023-01-03T03:51:57.517Z,5.72
2023-01-03T03:54:24.961Z,2.95
2023-01-03T03:56:57.919Z,4.68
2023-01-03T03:59:25.453Z,4.30
2023-01-03T04:01:53.689Z,2.13
2023-01-03T04:04:24.558Z,2.88
2023-01-03T04:06:52.317Z,3.42
2023-01-03T04:09:19.553Z,6.20
2023-01-03T04:11:46.324Z,3.85
2023-01-03T04:14:13.327Z,4.53
2023-01-03T04:16:41.274Z,2.85
2023-01-03T04:19:08.677Z,4.10
2023-01-03T04:21:36.828Z,2.58
2023-01-03T04:24:07.041Z,3.78
2023-01-03T04:26:33.749Z,2.70
2023-01-03T04:29:00.627Z,4.38
2023-01-03T04:31:27.304Z,5.38
2023-01-03T04:33:54.243Z,5.03
2023-01-03T04:36:21.261Z,4.88
2023-01-03T04:38:47.972Z,3.35
2023-01-03T04:41:14.671Z,6.05
2023-01-03T04:44:00.048Z,5.85
2023-01-03T04:46:26.942Z,4.82
2023-01-03T04:48:53.735Z,6.63
2023-01-03T04:51:20.431Z,5.25
2023-01-03T04:53:47.077Z,4.20
2023-01-03T04:56:13.829Z,3.22
2023-01-03T04:58:40.540Z,4.85
2023-01-03T05:01:10.344Z,5.78
2023-01-03T05:03:38.253Z,3.28
2023-01-03T05:06:09.232Z,3.30
2023-01-03T05:08:36.071Z,6.57
2023-01-03T05:11:03.605Z,3.40
2023-01-03T05:13:30.351Z,4.95
2023-01-03T05:15:57.309Z,6.78
2023-01-03T05:18:24.018Z,3.75
2023-01-03T05:21:09.000Z,4.47
2023-01-03T05:23:54.319Z,3.53
2023-01-03T05:26:21.984Z,6.22
2023-01-03T05:28:51.472Z,4.35
2023-01-03T05:31:18.306Z,7.63
2023-01-03T05:33:45.098Z,4.93
2023-01-03T05:36:12.114Z,6.00
2023-01-03T05:38:38.867Z,4.35
2023-01-03T05:41:06.029Z,5.65
2023-01-03T05:43:32.838Z,4.78
2023-01-03T05:45:59.659Z,5.60
2023-01-03T05:48:27.258Z,5.60
2023-01-03T05:50:57.493Z,5.30
2023-01-03T05:53:25.258Z,3.78
2023-01-03T05:55:51.947Z,4.35
2023-01-03T05:58:18.890Z,5.25
2023-01-03T06:00:45.700Z,4.40
2023-01-03T06:03:13.735Z,5.80
2023-01-03T06:05:46.121Z,9.05
2023-01-03T06:08:16.441Z,5.53
2023-01-03T06:10:43.168Z,5.10
2023-01-03T06:13:09.951Z,4.38
2023-01-03T06:15:36.627Z,7.18
2023-01-03T06:18:03.360Z,4.78
2023-01-03T06:20:30.402Z,8.88
2023-01-03T06:22:57.718Z,4.97
2023-01-03T06:25:24.742Z,6.05
2023-01-03T06:27:51.491Z,5.72
2023-01-03T06:30:18.453Z,6.40
2023-01-03T06:32:45.268Z,4.50
2023-01-03T06:35:12.105Z,8.38
2023-01-03T06:37:39.310Z,8.02
2023-01-03T06:40:12.105Z,4.30
2023-01-03T06:42:44.776Z,5.22
2023-01-03T06:45:32.077Z,7.30
2023-01-03T06:48:17.538Z,3.47
2023-01-03T06:51:03.355Z,5.57
2023-01-03T06:53:36.613Z,3.28
2023-01-03T06:56:04.205Z,3.95
2023-01-03T06:58:31.101Z,5.00
2023-01-03T07:00:59.223Z,4.90
2023-01-03T07:03:26.000Z,3.90
2023-01-03T07:05:52.764Z,6.93
2023-01-03T07:08:19.659Z,6.07
2023-01-03T07:10:46.507Z,7.55
2023-01-03T07:13:32.462Z,11.02
2023-01-03T07:15:59.377Z,5.22
2023-01-03T07:18:29.116Z,5.93
2023-01-03T07:20:55.927Z,7.40
2023-01-03T07:23:22.717Z,6.20
2023-01-03T07:25:49.558Z,6.50
2023-01-03T07:28:17.171Z,7.35
2023-01-03T07:30:45.996Z,5.13
2023-01-03T07:33:14.997Z,6.53
2023-01-03T07:35:42.053Z,6.82
2023-01-03T07:38:09.651Z,6.07
2023-01-03T07:40:36.364Z,7.35
2023-01-03T07:43:22.362Z,10.45
2023-01-03T07:45:49.172Z,7.70
2023-01-03T07:48:16.015Z,8.93
2023-01-03T07:50:42.807Z,5.72
2023-01-03T07:53:10.151Z,5.90
2023-01-03T07:55:37.941Z,6.25
2023-01-03T07:58:04.855Z,7.55
2023-01-03T08:00:31.785Z,7.03
2023-01-03T08:02:58.686Z,9.68
2023-01-03T08:05:25.719Z,6.35
2023-01-03T08:07:53.805Z,5.32
2023-01-03T08:10:39.644Z,5.80
2023-01-03T08:13:18.292Z,10.00
2023-01-03T08:15:55.453Z,5.53
2023-01-03T08:18:24.412Z,4.60
2023-01-03T08:20:55.388Z,8.50
2023-01-03T08:23:23.198Z,7.03
2023-01-03T08:25:50.310Z,8.13
2023-01-03T08:28:17.133Z,8.43
2023-01-03T08:30:47.071Z,4.90
2023-01-03T08:33:15.380Z,7.80
2023-01-03T08:35:45.748Z,8.82
2023-01-03T08:38:15.545Z,8.73
2023-01-03T08:40:45.404Z,7.22
2023-01-03T08:43:12.863Z,5.82
2023-01-03T08:45:40.212Z,6.70
2023-01-03T08:48:08.794Z,5.53
2023-01-03T08:50:35.555Z,7.57
2023-01-03T08:53:02.679Z,4.32
2023-01-03T08:55:29.378Z,8.50
2023-01-03T08:57:56.750Z,6.63
2023-01-03T09:00:23.576Z,5.43
2023-01-03T09:02:50.733Z,8.00
2023-01-03T09:05:17.900Z,3.85
2023-01-03T09:07:44.656Z,10.07
2023-01-03T09:10:12.278Z,6.60
2023-01-03T09:12:39.178Z,4.90
2023-01-03T09:15:07.455Z,6.22
2023-01-03T09:17:34.410Z,5.60
2023-01-03T09:20:01.179Z,4.75
2023-01-03T09:22:27.951Z,7.65
2023-01-03T09:24:55.747Z,9.32
2023-01-03T09:27:22.648Z,6.40
2023-01-03T09:29:49.591Z,6.50
2023-01-03T09:32:16.537Z,9.45
2023-01-03T09:34:43.545Z,6.05
2023-01-03T09:37:10.626Z,7.95
2023-01-03T09:39:37.311Z,6.00
2023-01-03T09:42:24.145Z,5.20
2023-01-03T09:44:52.562Z,7.10
2023-01-03T09:47:23.109Z,14.02
2023-01-03T09:50:26.746Z,9.82
2023-01-03T09:53:01.824Z,4.95
2023-01-03T09:55:55.694Z,5.43
2023-01-03T09:58:41.187Z,8.23
2023-01-03T10:01:38.850Z,4.60
2023-01-03T10:04:18.194Z,5.10
2023-01-03T10:07:04.129Z,7.22
2023-01-03T10:09:57.620Z,8.88
2023-01-03T10:12:53.770Z,7.95
2023-01-03T10:15:30.533Z,5.20
2023-01-03T10:18:27.690Z,8.77
2023-01-03T10:21:02.897Z,5.05
2023-01-03T10:23:30.700Z,5.80
2023-01-03T10:25:58.020Z,9.95
2023-01-03T10:28:26.911Z,6.63
2023-01-03T10:31:08.279Z,8.50
2023-01-03T10:33:45.662Z,8.15
2023-01-03T10:36:13.632Z,9.13
2023-01-03T10:38:47.938Z,6.18
2023-01-03T10:41:23.392Z,5.80
2023-01-03T10:43:58.290Z,7.75
2023-01-03T10:46:27.308Z,9.38
2023-01-03T10:51:53.291Z,6.80
2023-01-03T10:54:20.040Z,7.68
2023-01-03T10:56:47.937Z,10.18
2023-01-03T10:59:28.999Z,8.90
2023-01-03T11:02:07.455Z,12.75
2023-01-03T11:04:38.031Z,11.52
2023-01-03T11:07:14.040Z,6.75
2023-01-03T11:09:57.072Z,11.57
2023-01-03T11:12:38.683Z,9.25
2023-01-03T11:15:14.883Z,9.45
2023-01-03T11:17:58.769Z,5.70
2023-01-03T11:20:44.487Z,6.47
2023-01-03T11:23:56.285Z,8.15
2023-01-03T11:26:50.635Z,12.23
2023-01-03T11:29:36.061Z,11.23
2023-01-03T11:32:27.225Z,9.27
2023-01-03T11:35:24.668Z,8.15
2023-01-03T11:38:02.482Z,7.03
2023-01-03T11:40:52.445Z,8.55
2023-01-03T11:43:35.325Z,9.70
2023-01-03T11:46:34.347Z,12.75
2023-01-03T11:49:09.994Z,13.70
2023-01-03T11:51:51.039Z,13.00
2023-01-03T11:54:36.469Z,6.53
2023-01-03T11:57:14.109Z,10.48
2023-01-03T11:59:59.664Z,7.43
2023-01-03T12:02:52.901Z,11.27
2023-01-03T12:05:34.715Z,9.00
2023-01-03T12:08:08.668Z,8.02
2023-01-03T12:10:40.247Z,9.60
2023-01-03T12:13:13.175Z,10.70
2023-01-03T12:15:45.685Z,8.57
2023-01-03T12:18:39.719Z,10.70
2023-01-03T12:21:22.269Z,9.50
2023-01-03T12:24:18.310Z,7.15
2023-01-03T12:26:50.888Z,9.55
2023-01-03T12:30:00.638Z,8.27
2023-01-03T12:32:54.132Z,7.22
2023-01-03T12:35:34.326Z,11.07
2023-01-03T12:38:04.387Z,8.55
2023-01-03T12:40:54.544Z,6.80
2023-01-03T12:43:29.006Z,11.40
2023-01-03T12:46:12.071Z,7.68
2023-01-03T12:48:49.966Z,9.05
2023-01-03T12:51:20.371Z,8.13
2023-01-03T12:53:56.188Z,7.95
2023-01-03T12:56:51.842Z,6.22
2023-01-03T12:59:54.864Z,10.15
2023-01-03T13:02:29.915Z,8.48
2023-01-03T13:05:14.229Z,6.93
2023-01-03T13:07:43.740Z,7.03
2023-01-03T13:10:14.459Z,6.28
2023-01-03T13:12:45.495Z,10.50
2023-01-03T13:15:23.711Z,8.05
2023-01-03T13:17:50.897Z,7.22
2023-01-03T13:20:30.004Z,5.63
2023-01-03T13:22:57.855Z,6.82
2023-01-03T13:25:27.900Z,6.88
2023-01-03T13:27:58.506Z,9.95
2023-01-03T13:30:36.288Z,5.63
2023-01-03T13:33:12.075Z,8.98
2023-01-03T13:35:44.827Z,6.90
2023-01-03T13:38:35.952Z,7.50
2023-01-03T13:41:23.881Z,12.18
2023-01-03T13:43:53.673Z,5.97
2023-01-03T13:46:26.562Z,7.97
2023-01-03T13:48:56.629Z,7.18
2023-01-03T13:51:23.258Z,6.88
2023-01-03T13:54:00.707Z,6.78
2023-01-03T13:56:33.015Z,5.05
2023-01-03T13:59:04.839Z,7.90
2023-01-03T14:01:41.097Z,9.10
2023-01-03T14:04:23.028Z,11.07
2023-01-03T14:07:33.641Z,12.70
2023-01-03T14:10:06.912Z,7.40
2023-01-03T14:12:59.766Z,8.38
2023-01-03T14:15:27.226Z,9.25
2023-01-03T14:17:56.448Z,7.90
2023-01-03T14:20:29.613Z,9.43
2023-01-03T14:22:57.223Z,6.07
2023-01-03T14:25:35.849Z,6.90
2023-01-03T14:28:06.669Z,6.47
2023-01-03T14:30:34.933Z,9.32
2023-01-03T14:33:01.671Z,7.45
2023-01-03T14:35:46.546Z,12.25
2023-01-03T14:38:29.716Z,8.55
2023-01-03T14:40:57.365Z,7.63
2023-01-03T14:43:33.648Z,9.23
2023-01-03T14:46:03.970Z,8.02
2023-01-03T14:48:30.722Z,9.05
2023-01-03T14:51:01.429Z,6.82
2023-01-03T14:53:28.836Z,7.95
2023-01-03T14:55:57.323Z,7.65
2023-01-03T14:58:40.037Z,11.27
2023-01-03T15:01:08.615Z,6.30
2023-01-03T15:03:37.909Z,9.85
2023-01-03T15:06:27.967Z,6.57
2023-01-03T15:08:58.020Z,9.18
2023-01-03T15:11:35.514Z,8.27
2023-01-03T15:14:04.561Z,9.77
2023-01-03T15:16:42.278Z,8.55
2023-01-03T15:19:17.837Z,9.00
2023-01-03T15:21:44.673Z,7.93
2023-01-03T15:24:17.115Z,7.60
2023-01-03T15:26:46.911Z,9.15
2023-01-03T15:29:28.727Z,9.88
2023-01-03T15:31:55.769Z,7.88
2023-01-03T15:34:28.600Z,9.68
2023-01-03T15:36:58.548Z,8.60
2023-01-03T15:39:27.383Z,9.23
2023-01-03T15:42:43.475Z,7.57
2023-01-03T15:45:11.945Z,9.05
2023-01-03T15:47:39.792Z,9.00
2023-01-03T15:50:07.050Z,9.95
2023-01-03T15:52:33.885Z,14.25
2023-01-03T15:55:00.562Z,14.35
2023-01-03T15:57:29.916Z,15.10
2023-01-03T15:59:58.258Z,18.00
2023-01-03T16:02:26.129Z,13.82
2023-01-03T16:04:53.865Z,18.00
2023-01-03T16:07:20.801Z,17.20
2023-01-03T16:09:48.224Z,19.92
2023-01-03T16:12:18.099Z,22.38
2023-01-03T16:14:47.956Z,19.40
2023-01-03T16:17:24.377Z,13.05
2023-01-03T16:19:52.339Z,11.45
2023-01-03T16:22:36.365Z,11.45
2023-01-03T16:25:05.438Z,14.68
2023-01-03T16:27:32.478Z,13.50
2023-01-03T16:29:59.514Z,16.92
2023-01-03T16:32:28.270Z,12.85
2023-01-03T16:34:58.403Z,11.00
2023-01-03T16:37:25.434Z,12.77
2023-01-03T16:39:52.194Z,12.32
2023-01-03T16:42:21.549Z,9.10
2023-01-03T16:44:48.639Z,10.90
2023-01-03T16:47:44.838Z,12.40
2023-01-03T16:50:17.574Z,11.85
2023-01-03T16:52:52.585Z,13.93
2023-01-03T16:55:28.518Z,11.57
2023-01-03T16:57:55.927Z,12.20
2023-01-03T17:00:25.667Z,12.13
2023-01-03T17:02:54.677Z,14.15
2023-01-03T17:05:22.355Z,15.98
2023-01-03T17:07:51.318Z,15.13
2023-01-03T17:10:26.412Z,12.23
2023-01-03T17:12:54.084Z,15.45
2023-01-03T17:15:20.843Z,11.90
2023-01-03T17:17:47.693Z,12.65
2023-01-03T17:20:18.859Z,12.65
2023-01-03T17:22:52.205Z,15.38
2023-01-03T17:25:20.011Z,14.10
2023-01-03T17:27:50.485Z,14.43
2023-01-03T17:30:20.558Z,16.38
2023-01-03T17:32:47.558Z,18.00
2023-01-03T17:35:17.795Z,16.58
2023-01-03T17:38:14.557Z,16.92
2023-01-03T17:40:34.157Z,15.82
2023-01-03T17:43:02.289Z,18.13
2023-01-03T17:45:48.654Z,15.32
2023-01-03T17:48:34.204Z,19.92
2023-01-03T17:51:01.971Z,20.67
2023-01-03T17:53:29.091Z,19.48
2023-01-03T17:55:55.999Z,18.98
2023-01-03T17:58:32.186Z,20.30
2023-01-03T18:00:59.316Z,20.73
2023-01-03T18:03:26.273Z,18.77
2023-01-03T18:05:53.275Z,21.15
2023-01-03T18:08:21.673Z,17.92
2023-01-03T18:10:49.442Z,17.30
2023-01-03T18:13:42.668Z,16.67
2023-01-03T18:16:14.415Z,16.98
2023-01-03T18:18:41.560Z,17.40
2023-01-03T18:21:23.128Z,16.60
2023-01-03T18:23:59.102Z,21.13
2023-01-03T18:26:32.431Z,17.33
2023-01-03T18:28:59.429Z,18.85
2023-01-03T18:31:26.453Z,19.48
2023-01-03T18:33:53.339Z,23.83
2023-01-03T18:36:30.761Z,24.10
2023-01-03T18:39:12.098Z,28.23
2023-01-03T18:41:40.395Z,28.92
2023-01-03T18:44:18.378Z,26.88
2023-01-03T18:46:47.807Z,27.83
2023-01-03T18:49:15.052Z,25.90
2023-01-03T18:51:41.982Z,22.25
2023-01-03T18:54:12.692Z,19.73
2023-01-03T18:56:41.691Z,19.10
2023-01-03T18:59:19.357Z,22.15
2023-01-03T19:01:46.240Z,19.60
2023-01-03T19:04:13.241Z,18.98
2023-01-03T19:06:42.592Z,18.73
2023-01-03T19:09:11.380Z,22.27
2023-01-03T19:11:38.346Z,20.40
2023-01-03T19:14:05.186Z,21.23
2023-01-03T19:16:34.365Z,21.25
2023-01-03T19:19:01.700Z,24.65
2023-01-03T19:21:37.346Z,31.60
2023-01-03T19:24:08.417Z,34.75
2023-01-03T19:26:56.982Z,33.90
2023-01-03T19:29:26.768Z,30.65
2023-01-03T19:31:55.437Z,32.72
2023-01-03T19:34:24.144Z,27.77
2023-01-03T19:36:51.278Z,27.38
2023-01-03T19:39:24.401Z,27.52
2023-01-03T19:42:13.998Z,31.50
2023-01-03T19:44:41.490Z,26.95
2023-01-03T19:47:17.299Z,25.15
2023-01-03T19:49:47.356Z,26.80
2023-01-03T19:52:15.062Z,24.92
2023-01-03T19:54:41.971Z,22.67
2023-01-03T19:57:22.897Z,26.58
2023-01-03T19:59:52.970Z,26.75
2023-01-03T20:02:39.682Z,24.77
2023-01-03T20:05:14.727Z,22.15
2023-01-03T20:07:41.871Z,21.88
2023-01-03T20:10:13.191Z,20.88
2023-01-03T20:12:40.079Z,20.63
2023-01-03T20:15:17.961Z,21.95
2023-01-03T20:17:44.716Z,22.55
2023-01-03T20:20:12.785Z,18.20
2023-01-03T20:25:34.851Z,25.27
2023-01-03T20:28:01.870Z,21.88
2023-01-03T20:30:31.178Z,18.52
2023-01-03T20:32:58.178Z,17.02
2023-01-03T20:36:07.549Z,18.65
2023-01-03T20:38:16.990Z,20.50
2023-01-03T20:40:44.055Z,19.67
2023-01-03T20:43:14.678Z,18.80
2023-01-03T20:45:41.496Z,19.77
2023-01-03T20:48:19.466Z,21.02
2023-01-03T20:50:50.320Z,20.98
2023-01-03T20:53:20.055Z,23.50
2023-01-03T20:55:48.427Z,26.02
2023-01-03T20:58:17.434Z,19.90
2023-01-03T21:00:44.914Z,20.40
2023-01-03T21:03:11.802Z,19.63
2023-01-03T21:05:38.733Z,17.95
2023-01-03T21:08:25.292Z,19.75
2023-01-03T21:10:55.006Z,18.45
2023-01-03T21:13:22.267Z,16.75
2023-01-03T21:15:49.915Z,20.60
2023-01-03T21:18:17.255Z,15.48
2023-01-03T21:20:44.566Z,17.77
2023-01-03T21:23:21.937Z,16.48
2023-01-03T21:25:50.299Z,22.30
2023-01-03T21:28:17.144Z,18.85
2023-01-03T21:30:44.052Z,19.00
2023-01-03T21:33:16.812Z,14.95
2023-01-03T21:35:43.720Z,17.90
2023-01-03T21:38:11.160Z,16.40
2023-01-03T21:40:37.858Z,16.17
2023-01-03T21:43:05.403Z,15.13
2023-01-03T21:45:45.463Z,16.23
2023-01-03T21:48:14.813Z,17.35
2023-01-03T21:50:46.725Z,21.80
2023-01-03T21:53:15.417Z,19.85
2023-01-03T21:55:42.527Z,18.10
2023-01-03T21:58:13.219Z,19.23
2023-01-03T22:00:40.092Z,15.15
2023-01-03T22:03:25.560Z,14.40
2023-01-03T22:05:52.302Z,13.98
2023-01-03T22:08:19.039Z,14.07
2023-01-03T22:10:48.354Z,11.55
2023-01-03T22:13:15.091Z,11.07
2023-01-03T22:15:41.773Z,11.30
2023-01-03T22:18:11.085Z,14.57
2023-01-03T22:20:39.096Z,15.98
2023-01-03T22:23:06.946Z,12.13
2023-01-03T22:25:33.727Z,13.15
2023-01-03T22:28:00.463Z,18.58
2023-01-03T22:30:27.374Z,12.68
2023-01-03T22:32:57.081Z,13.50
2023-01-03T22:35:24.033Z,13.10
2023-01-03T22:37:50.953Z,13.25
2023-01-03T22:40:18.172Z,10.70
2023-01-03T22:42:44.855Z,11.15
2023-01-03T22:45:11.806Z,9.95
2023-01-03T22:47:38.727Z,10.60
2023-01-03T22:50:07.402Z,11.60
2023-01-03T22:52:35.487Z,11.57
2023-01-03T22:55:02.315Z,13.43
2023-01-03T22:57:29.066Z,10.00
2023-01-03T22:59:55.880Z,9.43
2023-01-03T23:02:28.563Z,11.15
2023-01-03T23:04:55.970Z,10.05
2023-01-03T23:07:22.725Z,8.93
2023-01-03T23:09:49.561Z,12.70
2023-01-03T23:12:34.805Z,10.20
2023-01-03T23:15:01.511Z,10.38
2023-01-03T23:17:46.928Z,8.90
2023-01-03T23:20:13.678Z,10.80
2023-01-03T23:22:40.511Z,8.55
2023-01-03T23:25:08.040Z,9.63
2023-01-03T23:27:34.886Z,10.43
2023-01-03T23:30:01.612Z,11.57
2023-01-03T23:32:28.264Z,10.10
2023-01-03T23:34:55.051Z,10.05
2023-01-03T23:37:21.719Z,9.25
2023-01-03T23:39:48.758Z,10.52
2023-01-03T23:42:15.423Z,15.52
2023-01-03T23:44:42.365Z,9.23
2023-01-03T23:47:12.698Z,9.75
2023-01-03T23:49:39.788Z,8.07
2023-01-03T23:52:06.491Z,9.05
2023-01-03T23:54:33.262Z,15.35
2023-01-03T23:56:59.951Z,9.20
2023-01-03T23:59:26.643Z,10.10
